Time;durP1;ratioP1;P1;durP2;ratioP2;P2;SDS_P1;SDS_P2;PMS_P1;PMS_P2;Temp;Humidity;BMP_temperature;BMP_pressure;BME280_temperature;BME280_humidity;BME280_pressure;Samples;Min_cycle;Max_cycle;Signal;HPM_P1;HPM_P2
2021/05/13 00:00:37;;;;;;;30.20;13.23;;;;;;;8.65;100.00;100076.69;5079283;28;20089;-83
2021/05/13 00:03:02;;;;;;;33.50;13.70;;;;;;;8.65;100.00;100065.47;5097573;28;20055;-82
2021/05/13 00:05:28;;;;;;;31.88;12.20;;;;;;;8.68;100.00;100075.75;5076909;28;20031;-83
2021/05/13 00:07:53;;;;;;;28.58;12.65;;;;;;;8.68;100.00;100079.22;5076904;28;20020;-83
2021/05/13 00:10:23;;;;;;;28.30;12.63;;;;;;;8.68;100.00;100076.63;5076725;28;20114;-83
2021/05/13 00:12:52;;;;;;;25.45;12.40;;;;;;;8.69;100.00;100082.66;5097206;28;20059;-83
2021/05/13 00:15:32;;;;;;;28.85;12.30;;;;;;;8.69;100.00;100086.09;5113756;28;20004;-82
2021/05/13 00:17:58;;;;;;;26.10;12.30;;;;;;;8.69;100.00;100082.66;5087327;28;20048;-82
2021/05/13 00:20:30;;;;;;;25.23;12.05;;;;;;;8.69;100.00;100082.66;5076648;28;20031;-83
2021/05/13 00:22:56;;;;;;;25.60;12.25;;;;;;;8.63;100.00;100078.44;5076895;28;20430;-83
2021/05/13 00:25:22;;;;;;;23.80;12.30;;;;;;;8.64;100.00;100069.78;5076203;28;20032;-83
2021/05/13 00:27:48;;;;;;;28.98;12.27;;;;;;;8.55;100.00;100084.63;5075972;28;20020;-82
2021/05/13 00:30:14;;;;;;;27.52;12.63;;;;;;;8.58;100.00;100079.41;5076131;28;20115;-82
2021/05/13 00:32:40;;;;;;;29.35;12.70;;;;;;;8.60;100.00;100077.66;5076526;28;20395;-82
2021/05/13 00:35:08;;;;;;;27.77;12.85;;;;;;;8.56;100.00;100068.22;5075635;28;20031;-82
2021/05/13 00:37:34;;;;;;;22.67;12.13;;;;;;;8.59;100.00;100060.41;5093764;28;20028;-82
2021/05/13 00:39:59;;;;;;;27.85;12.63;;;;;;;8.56;100.00;100063.94;5076436;28;20038;-83
2021/05/13 00:42:24;;;;;;;25.40;11.52;;;;;;;8.51;100.00;100058.81;5079834;28;20081;-83
2021/05/13 00:45:00;;;;;;;27.02;12.18;;;;;;;8.52;100.00;100051.91;5133154;22;20067;-82
2021/05/13 00:47:28;;;;;;;30.60;12.40;;;;;;;8.48;100.00;100058.03;5118501;27;20023;-82
2021/05/13 00:49:53;;;;;;;29.25;11.45;;;;;;;8.47;100.00;100059.78;5119553;28;20024;-82
2021/05/13 00:52:20;;;;;;;24.85;11.60;;;;;;;8.44;100.00;100051.22;5118098;28;20051;-82
2021/05/13 00:54:45;;;;;;;26.33;10.93;;;;;;;8.43;100.00;100055.50;5121621;28;20040;-82
2021/05/13 00:57:14;;;;;;;26.92;11.13;;;;;;;8.42;100.00;100058.97;5124733;28;20049;-82
2021/05/13 00:59:44;;;;;;;23.17;10.18;;;;;;;8.44;100.00;100058.97;5124860;28;20058;-82
2021/05/13 01:02:13;;;;;;;26.15;11.10;;;;;;;8.40;100.00;100060.72;5122259;28;20062;-82
2021/05/13 01:04:41;;;;;;;24.38;12.07;;;;;;;8.39;100.00;100053.88;5121219;28;20031;-82
2021/05/13 01:07:07;;;;;;;24.17;10.75;;;;;;;8.39;100.00;100051.28;5123847;28;20058;-82
2021/05/13 01:09:33;;;;;;;26.95;11.23;;;;;;;8.35;100.00;100051.34;5120794;28;20480;-82
2021/05/13 01:12:20;;;;;;;31.55;12.38;;;;;;;8.39;100.00;100047.84;5122173;28;20019;-82
2021/05/13 01:14:48;;;;;;;20.77;11.45;;;;;;;8.35;100.00;100052.19;5122609;28;20023;-82
2021/05/13 01:17:26;;;;;;;22.40;11.50;;;;;;;8.32;100.00;100051.41;5122369;28;20020;-82
2021/05/13 01:19:56;;;;;;;23.15;11.55;;;;;;;8.34;100.00;100053.06;5121565;28;20112;-82
2021/05/13 01:22:26;;;;;;;25.25;11.50;;;;;;;8.33;100.00;100050.50;5120605;28;20019;-82
2021/05/13 01:24:53;;;;;;;31.30;11.50;;;;;;;8.32;100.00;100047.09;5118916;28;20034;-82
2021/05/13 01:27:19;;;;;;;28.30;12.80;;;;;;;8.33;100.00;100047.94;5121084;28;20043;-82
2021/05/13 01:29:48;;;;;;;26.08;11.43;;;;;;;8.31;100.00;100047.94;5120579;28;20024;-82
2021/05/13 01:32:15;;;;;;;25.80;12.25;;;;;;;8.30;100.00;100043.66;5120109;28;20035;-82
2021/05/13 01:34:41;;;;;;;27.67;11.60;;;;;;;8.26;100.00;100053.19;5118525;28;20472;-82
2021/05/13 01:37:07;;;;;;;26.23;11.15;;;;;;;8.27;100.00;100051.47;5117432;28;20027;-82
2021/05/13 01:39:32;;;;;;;27.48;12.68;;;;;;;8.28;100.00;100051.44;5115636;28;20017;-82
2021/05/13 01:41:58;;;;;;;28.92;11.75;;;;;;;8.30;100.00;100049.69;5116919;28;20502;-82
2021/05/13 01:44:23;;;;;;;28.42;11.98;;;;;;;8.30;100.00;100047.09;5116850;28;20039;-82
2021/05/13 01:46:49;;;;;;;22.90;11.88;;;;;;;8.33;100.00;100043.59;5117012;28;20024;-82
2021/05/13 01:49:19;;;;;;;26.13;12.40;;;;;;;8.29;100.00;100037.66;5115763;28;20376;-82
2021/05/13 01:51:45;;;;;;;27.05;12.68;;;;;;;8.28;100.00;100028.19;5116012;28;20028;-82
2021/05/13 01:54:12;;;;;;;31.40;11.68;;;;;;;8.28;100.00;100035.06;5116090;28;20043;-82
2021/05/13 01:56:37;;;;;;;27.10;12.57;;;;;;;8.31;100.00;100029.84;5117876;28;20019;-81
2021/05/13 01:59:05;;;;;;;29.00;13.02;;;;;;;8.26;100.00;100026.53;5118155;28;20028;-82
2021/05/13 02:01:31;;;;;;;30.83;12.07;;;;;;;8.27;100.00;100033.38;5115581;28;20460;-82
2021/05/13 02:03:57;;;;;;;28.05;12.32;;;;;;;8.26;100.00;100029.94;5115517;28;20051;-82
2021/05/13 02:06:22;;;;;;;26.90;12.60;;;;;;;8.24;100.00;100028.25;5116677;28;20463;-82
2021/05/13 02:08:50;;;;;;;28.67;11.90;;;;;;;8.28;100.00;100022.16;5116251;28;20050;-82
2021/05/13 02:11:16;;;;;;;32.58;13.60;;;;;;;8.29;100.00;100026.47;5116764;28;20047;-82
2021/05/13 02:13:41;;;;;;;31.80;13.38;;;;;;;8.24;100.00;100025.69;5115445;28;20050;-82
2021/05/13 02:16:07;;;;;;;23.48;11.18;;;;;;;8.25;100.00;100023.09;5115001;28;20076;-82
2021/05/13 02:18:32;;;;;;;27.08;12.30;;;;;;;8.26;100.00;100027.38;5116581;28;20123;-82
2021/05/13 02:20:58;;;;;;;27.60;11.68;;;;;;;8.25;100.00;100035.13;5117076;28;20020;-82
2021/05/13 02:23:23;;;;;;;27.35;12.75;;;;;;;8.22;100.00;100032.59;5115281;28;20029;-82
2021/05/13 02:25:50;;;;;;;34.72;12.85;;;;;;;8.22;100.00;100033.47;5116920;28;20023;-82
2021/05/13 02:28:16;;;;;;;33.15;12.80;;;;;;;8.18;100.00;100038.69;5115168;28;20027;-82
2021/05/13 02:30:41;;;;;;;33.13;12.10;;;;;;;8.28;100.00;100045.41;5114649;28;20020;-82
2021/05/13 02:33:07;;;;;;;32.05;12.55;;;;;;;8.25;100.00;100045.47;5114796;28;20020;-82
2021/05/13 02:35:32;;;;;;;24.38;12.00;;;;;;;8.16;100.00;100040.44;5115255;28;20027;-82
2021/05/13 02:37:59;;;;;;;29.73;12.98;;;;;;;8.26;100.00;100034.28;5116280;28;20068;-82
2021/05/13 02:40:24;;;;;;;32.03;14.02;;;;;;;8.21;100.00;100036.06;5115441;28;20023;-82
2021/05/13 02:42:51;;;;;;;26.08;13.88;;;;;;;8.21;100.00;100029.16;5116331;28;20019;-82
2021/05/13 02:45:16;;;;;;;27.30;13.15;;;;;;;8.24;100.00;100025.69;5115231;28;20065;-82
2021/05/13 02:47:42;;;;;;;31.73;13.88;;;;;;;8.25;100.00;100025.66;5115574;28;20028;-82
2021/05/13 02:50:11;;;;;;;34.17;12.43;;;;;;;8.27;100.00;100018.72;5115984;28;20027;-82
2021/05/13 02:52:36;;;;;;;40.20;16.15;;;;;;;8.26;100.00;100022.19;5114320;28;20023;-82
2021/05/13 02:55:04;;;;;;;28.23;13.85;;;;;;;8.27;100.00;100018.72;5114064;28;20030;-82
2021/05/13 02:57:40;;;;;;;32.45;14.45;;;;;;;8.29;100.00;100016.13;5114120;28;20037;-82
2021/05/13 03:02:47;;;;;;;29.08;14.50;;;;;;;8.24;100.00;100003.28;5116057;28;20023;-82
2021/05/13 03:05:16;;;;;;;26.58;14.02;;;;;;;8.22;100.00;99999.00;5115665;28;20395;-82
2021/05/13 03:07:50;;;;;;;27.20;13.65;;;;;;;8.21;100.00;100000.75;5113923;28;20041;-82
2021/05/13 03:10:21;;;;;;;31.52;15.25;;;;;;;8.20;100.00;100000.78;5114715;28;20027;-82
2021/05/13 03:12:49;;;;;;;33.72;15.57;;;;;;;8.16;100.00;99997.41;5116207;28;20111;-82
2021/05/13 03:15:16;;;;;;;28.90;14.10;;;;;;;8.23;100.00;100000.75;5113738;28;20020;-82
2021/05/13 03:17:41;;;;;;;33.58;15.32;;;;;;;8.22;100.00;99988.69;5114065;28;20472;-82
2021/05/13 03:20:07;;;;;;;32.83;15.68;;;;;;;8.19;100.00;99996.47;5114937;28;20031;-82
2021/05/13 03:22:33;;;;;;;42.47;16.90;;;;;;;8.17;100.00;99990.50;5115197;28;20083;-82
2021/05/13 03:25:05;;;;;;;31.92;17.38;;;;;;;8.24;100.00;99994.69;5113642;28;20051;-82
2021/05/13 03:27:49;;;;;;;31.48;15.38;;;;;;;8.22;100.00;99989.56;5113468;28;20024;-82
2021/05/13 03:30:24;;;;;;;37.63;16.38;;;;;;;8.25;100.00;99988.63;5115752;28;20462;-82
2021/05/13 03:32:54;;;;;;;28.95;15.32;;;;;;;8.24;100.00;99982.63;5113704;28;20104;-82
2021/05/13 03:35:19;;;;;;;36.25;16.50;;;;;;;8.24;100.00;99984.34;5114971;28;20038;-82
2021/05/13 03:37:45;;;;;;;34.45;15.93;;;;;;;8.24;100.00;99980.03;5113588;28;20422;-82
2021/05/13 03:40:11;;;;;;;31.13;15.93;;;;;;;8.22;100.00;99979.22;5114147;28;20023;-82
2021/05/13 03:42:36;;;;;;;36.63;16.45;;;;;;;8.25;100.00;99974.00;5115321;28;20480;-82
2021/05/13 03:45:02;;;;;;;32.75;16.65;;;;;;;8.23;100.00;99974.91;5113474;28;20073;-82
2021/05/13 03:47:27;;;;;;;28.40;16.13;;;;;;;8.24;100.00;99976.59;5114452;28;20060;-82
2021/05/13 03:49:55;;;;;;;38.83;17.35;;;;;;;8.29;100.00;99979.97;5113617;28;20130;-82
2021/05/13 03:52:20;;;;;;;35.25;17.08;;;;;;;8.27;100.00;99974.81;5113841;28;20023;-82
2021/05/13 03:54:46;;;;;;;36.35;17.55;;;;;;;8.29;100.00;99973.06;5116564;28;20115;-82
2021/05/13 03:57:11;;;;;;;38.65;17.00;;;;;;;8.30;100.00;99972.16;5112998;28;20076;-82
2021/05/13 03:59:39;;;;;;;37.28;18.20;;;;;;;8.33;100.00;99971.25;5113235;28;20030;-82
2021/05/13 04:02:47;;;;;;;34.85;17.92;;;;;;;8.29;100.00;99970.47;5114616;28;20085;-82
2021/05/13 04:04:53;;;;;;;47.22;18.63;;;;;;;8.29;100.00;99974.78;5108908;28;20038;-82
2021/05/13 04:07:18;;;;;;;37.15;18.00;;;;;;;8.30;100.00;99977.34;5112866;28;20479;-82
2021/05/13 04:09:45;;;;;;;36.65;19.02;;;;;;;8.29;100.00;99970.47;5113082;28;20023;-82
2021/05/13 04:12:13;;;;;;;49.67;21.95;;;;;;;8.24;100.00;99977.44;5112614;28;20019;-82
2021/05/13 04:14:39;;;;;;;41.55;20.27;;;;;;;8.30;100.00;99971.31;5114468;28;20030;-82
2021/05/13 04:17:07;;;;;;;45.35;20.45;;;;;;;8.28;100.00;99967.91;5112944;28;20024;-82
2021/05/13 04:19:32;;;;;;;45.88;21.65;;;;;;;8.28;100.00;99961.03;5116355;28;20044;-82
2021/05/13 04:21:58;;;;;;;42.55;20.67;;;;;;;8.32;100.00;99961.81;5112803;28;20108;-82
2021/05/13 04:24:26;;;;;;;46.08;20.92;;;;;;;8.35;100.00;99961.75;5112565;28;20479;-83
2021/05/13 04:26:54;;;;;;;45.97;20.67;;;;;;;8.30;100.00;99953.22;5113240;28;20024;-82
2021/05/13 04:29:23;;;;;;;44.47;21.65;;;;;;;8.34;100.00;99948.84;5113209;28;20114;-82
2021/05/13 04:31:48;;;;;;;47.45;21.35;;;;;;;8.44;100.00;99942.69;5112717;28;20027;-82
2021/05/13 04:34:14;;;;;;;51.83;21.33;;;;;;;8.40;100.00;99936.69;5114124;28;20050;-82
2021/05/13 04:36:39;;;;;;;49.80;21.52;;;;;;;8.43;100.00;99938.38;5113347;28;20034;-82
2021/05/13 04:39:05;;;;;;;52.08;21.33;;;;;;;8.48;100.00;99941.72;5112410;28;20059;-82
2021/05/13 04:41:33;;;;;;;56.05;23.02;;;;;;;8.37;100.00;99939.31;5112401;28;20027;-82
2021/05/13 04:43:58;;;;;;;57.63;22.67;;;;;;;8.41;100.00;99935.00;5112769;28;20492;-82
2021/05/13 04:46:27;;;;;;;58.80;24.50;;;;;;;8.44;100.00;99933.19;5114389;28;20031;-82
2021/05/13 04:48:57;;;;;;;56.78;24.08;;;;;;;8.46;100.00;99930.56;5112962;28;20110;-82
2021/05/13 04:51:36;;;;;;;56.67;23.30;;;;;;;8.51;100.00;99929.59;5112630;28;20019;-82
2021/05/13 04:54:05;;;;;;;48.60;21.50;;;;;;;8.46;100.00;99920.22;5112837;28;20106;-82
2021/05/13 04:56:31;;;;;;;60.60;23.95;;;;;;;8.39;100.00;99923.81;5112590;28;20072;-82
2021/05/13 04:58:57;;;;;;;48.58;20.98;;;;;;;8.44;100.00;99911.69;5112215;28;20536;-83
2021/05/13 05:01:22;;;;;;;50.95;22.63;;;;;;;8.51;100.00;99921.00;5112631;28;20028;-82
2021/05/13 05:03:48;;;;;;;47.92;22.50;;;;;;;8.51;100.00;99911.50;5112716;28;20081;-82
2021/05/13 05:06:15;;;;;;;46.33;21.20;;;;;;;8.56;100.00;99907.97;5112098;28;20398;-82
2021/05/13 05:08:41;;;;;;;50.92;22.23;;;;;;;8.60;100.00;99907.88;5112388;28;20433;-82
2021/05/13 05:11:07;;;;;;;42.97;20.60;;;;;;;8.71;100.00;99902.47;5114120;28;20038;-82
2021/05/13 05:13:32;;;;;;;41.45;19.75;;;;;;;8.78;100.00;99901.50;5112079;28;20022;-82
2021/05/13 05:15:58;;;;;;;43.13;19.85;;;;;;;8.74;100.00;99902.41;5112488;28;20027;-82
2021/05/13 05:18:25;;;;;;;38.20;18.67;;;;;;;8.83;100.00;99904.81;5113612;28;20380;-82
2021/05/13 05:20:51;;;;;;;37.35;19.77;;;;;;;8.85;100.00;99905.63;5113053;28;20066;-82
2021/05/13 05:23:17;;;;;;;43.95;20.00;;;;;;;8.87;100.00;99914.22;5113095;28;20032;-82
2021/05/13 05:25:43;;;;;;;32.70;19.10;;;;;;;8.93;100.00;99903.75;5113572;28;20024;-82
2021/05/13 05:28:10;;;;;;;35.63;18.40;;;;;;;8.92;100.00;99906.34;5114723;28;20042;-82
2021/05/13 05:30:36;;;;;;;38.22;17.60;;;;;;;8.95;100.00;99896.78;5116740;28;20512;-82
2021/05/13 05:33:03;;;;;;;35.25;17.35;;;;;;;8.95;100.00;99899.38;5115829;28;20486;-82
2021/05/13 05:35:28;;;;;;;36.65;18.23;;;;;;;9.06;100.00;99899.13;5117567;28;20023;-82
2021/05/13 05:37:54;;;;;;;38.90;20.48;;;;;;;9.02;100.00;99894.94;5117363;28;20015;-82
2021/05/13 05:40:21;;;;;;;34.30;19.55;;;;;;;9.11;100.00;99889.53;5117625;28;20045;-82
2021/05/13 05:42:47;;;;;;;39.70;19.13;;;;;;;9.16;100.00;99889.44;5115656;28;20053;-82
2021/05/13 05:45:12;;;;;;;31.13;18.90;;;;;;;9.22;100.00;99895.31;5115715;28;20024;-82
2021/05/13 05:47:38;;;;;;;40.78;19.73;;;;;;;9.38;100.00;99887.19;5116715;28;20043;-82
2021/05/13 05:50:04;;;;;;;34.92;19.60;;;;;;;9.21;100.00;99885.00;5116114;28;20522;-82
2021/05/13 05:52:32;;;;;;;40.03;18.95;;;;;;;9.17;100.00;99886.78;5115861;28;20118;-82
2021/05/13 05:54:57;;;;;;;34.30;19.00;;;;;;;9.13;100.00;99886.91;5115413;28;20023;-82
2021/05/13 05:57:23;;;;;;;35.05;19.80;;;;;;;8.96;100.00;99879.53;5116973;28;20152;-82
2021/05/13 05:59:48;;;;;;;41.05;18.60;;;;;;;8.96;100.00;99885.56;5117122;28;20152;-82
2021/05/13 06:02:13;;;;;;;34.22;18.90;;;;;;;8.87;100.00;99884.94;5115846;28;20019;-82
2021/05/13 06:04:39;;;;;;;34.63;19.65;;;;;;;8.82;100.00;99882.44;5115983;28;20035;-82
2021/05/13 06:07:04;;;;;;;33.63;18.70;;;;;;;8.94;100.00;99876.13;5117928;28;20023;-81
2021/05/13 06:09:29;;;;;;;34.55;18.88;;;;;;;8.87;100.00;99884.94;5120129;28;20476;-81
2021/05/13 06:11:54;;;;;;;34.10;18.85;;;;;;;8.89;100.00;99878.81;5118899;28;20031;-81
2021/05/13 06:14:20;;;;;;;41.15;21.42;;;;;;;8.90;100.00;99867.59;5118278;28;20031;-82
2021/05/13 06:16:45;;;;;;;39.25;20.85;;;;;;;8.92;100.00;99875.31;5117336;28;20387;-82
2021/05/13 06:19:11;;;;;;;38.47;20.48;;;;;;;8.95;100.00;99865.75;5121522;28;20024;-81
2021/05/13 06:21:39;;;;;;;30.63;17.08;;;;;;;8.99;100.00;99869.13;5124010;28;20023;-81
2021/05/13 06:24:08;;;;;;;29.88;16.70;;;;;;;9.07;100.00;99866.34;5121859;28;20051;-81
2021/05/13 06:26:33;;;;;;;23.65;14.95;;;;;;;9.12;100.00;99870.53;5121310;28;20019;-81
2021/05/13 06:28:59;;;;;;;25.60;15.50;;;;;;;9.07;100.00;99861.19;5122759;28;20024;-81
2021/05/13 06:31:24;;;;;;;24.85;16.88;;;;;;;9.18;100.00;99864.38;5122457;28;20540;-81
2021/05/13 06:33:50;;;;;;;24.13;15.60;;;;;;;9.22;100.00;99860.81;5123939;28;20035;-81
2021/05/13 06:36:16;;;;;;;24.05;16.15;;;;;;;9.36;100.00;99868.22;5122812;28;20023;-81
2021/05/13 06:38:42;;;;;;;28.10;16.63;;;;;;;9.39;100.00;99866.44;5122550;28;20516;-83
2021/05/13 06:41:09;;;;;;;30.95;18.17;;;;;;;9.41;100.00;99864.66;5125022;28;20027;-80
2021/05/13 06:43:36;;;;;;;29.00;18.00;;;;;;;9.50;100.00;99860.16;5122996;28;20031;-81
2021/05/13 06:46:02;;;;;;;32.13;19.33;;;;;;;9.40;100.00;99864.72;5133516;22;20127;-83
2021/05/13 06:48:28;;;;;;;30.42;19.60;;;;;;;9.44;100.00;99859.41;5097257;28;20078;-84
2021/05/13 06:50:53;;;;;;;30.25;18.98;;;;;;;9.49;100.00;99863.63;5096234;28;20357;-84
2021/05/13 06:53:19;;;;;;;29.48;18.67;;;;;;;9.93;100.00;99861.63;5094821;28;20024;-84
2021/05/13 06:55:45;;;;;;;29.98;19.70;;;;;;;9.58;100.00;99864.25;5094163;28;20027;-84
2021/05/13 06:58:11;;;;;;;31.60;20.63;;;;;;;9.72;100.00;99861.28;5094261;28;20016;-84
2021/05/13 07:00:36;;;;;;;32.63;21.15;;;;;;;9.57;100.00;99866.88;5094089;28;20046;-84
2021/05/13 07:03:02;;;;;;;32.40;18.33;;;;;;;9.66;100.00;99858.84;5094740;28;20024;-84
2021/05/13 07:05:27;;;;;;;39.22;24.55;;;;;;;9.64;100.00;99858.91;5094848;28;20027;-84
2021/05/13 07:07:53;;;;;;;35.30;21.73;;;;;;;9.76;100.00;99862.94;5096280;28;20016;-85
2021/05/13 07:10:18;;;;;;;29.65;19.83;;;;;;;9.89;100.00;99856.53;5096541;28;20047;-84
2021/05/13 07:12:44;;;;;;;31.50;20.65;;;;;;;9.70;100.00;99860.50;5097963;28;20048;-83
2021/05/13 07:15:10;;;;;;;35.67;20.10;;;;;;;9.69;100.00;99851.84;5097722;28;20073;-83
2021/05/13 07:17:35;;;;;;;33.50;20.98;;;;;;;9.88;100.00;99853.97;5097036;28;20020;-84
2021/05/13 07:20:00;;;;;;;34.13;21.23;;;;;;;10.03;100.00;99853.56;5096830;28;20031;-84
2021/05/13 07:22:26;;;;;;;32.10;20.85;;;;;;;10.18;100.00;99860.06;5097020;28;20092;-83
2021/05/13 07:24:51;;;;;;;26.20;17.42;;;;;;;9.85;100.00;99854.03;5096129;28;20020;-84
2021/05/13 07:27:17;;;;;;;24.33;15.75;;;;;;;9.79;100.00;99859.38;5096442;28;20020;-83
2021/05/13 07:29:42;;;;;;;23.42;14.55;;;;;;;9.67;100.00;99860.59;5096271;28;20455;-83
2021/05/13 07:32:08;;;;;;;25.85;16.50;;;;;;;9.79;100.00;99865.44;5096314;28;20123;-83
2021/05/13 07:34:34;;;;;;;25.45;16.52;;;;;;;9.68;100.00;99870.88;5097260;28;20059;-83
2021/05/13 07:37:00;;;;;;;25.35;16.35;;;;;;;9.61;100.00;99863.31;5096851;28;20062;-83
2021/05/13 07:39:25;;;;;;;26.20;16.80;;;;;;;9.58;100.00;99869.44;5098445;28;20024;-83
2021/05/13 07:41:51;;;;;;;27.15;17.00;;;;;;;9.71;100.00;99863.94;5097864;28;20047;-83
2021/05/13 07:44:17;;;;;;;27.17;17.40;;;;;;;9.66;100.00;99864.88;5097561;28;20472;-83
2021/05/13 07:46:42;;;;;;;30.70;17.90;;;;;;;9.56;100.00;99865.16;5096565;28;20111;-83
2021/05/13 07:49:08;;;;;;;31.27;19.55;;;;;;;9.59;100.00;99862.50;5096999;28;20031;-83
2021/05/13 07:51:34;;;;;;;39.42;21.45;;;;;;;9.49;100.00;99867.06;5096640;28;20049;-83
2021/05/13 07:54:01;;;;;;;37.80;21.13;;;;;;;9.66;100.00;99861.44;5096582;28;20016;-83
2021/05/13 07:56:26;;;;;;;34.83;21.58;;;;;;;9.90;100.00;99868.56;5095740;28;20024;-84
2021/05/13 07:58:51;;;;;;;33.85;20.63;;;;;;;9.95;100.00;99862.44;5095491;28;20020;-83
2021/05/13 08:01:17;;;;;;;34.70;20.80;;;;;;;9.83;100.00;99867.06;5096154;28;20024;-83
2021/05/13 08:03:42;;;;;;;37.95;21.08;;;;;;;9.80;100.00;99867.13;5096815;28;20101;-84
2021/05/13 08:06:07;;;;;;;30.30;18.30;;;;;;;10.04;100.00;99864.78;5095859;28;20031;-83
2021/05/13 08:08:33;;;;;;;28.23;16.70;;;;;;;10.04;100.00;99869.97;5096271;28;20476;-84
2021/05/13 08:10:58;;;;;;;23.88;15.35;;;;;;;10.18;100.00;99864.41;5095642;28;20059;-84
2021/05/13 08:13:23;;;;;;;24.65;15.43;;;;;;;10.25;100.00;99866.78;5095245;28;20491;-84
2021/05/13 08:15:49;;;;;;;20.77;13.02;;;;;;;10.32;100.00;99867.50;5102106;28;20067;-84
2021/05/13 08:18:14;;;;;;;22.73;11.30;;;;;;;10.20;100.00;99855.69;5113410;28;20028;-83
2021/05/13 08:20:40;;;;;;;20.63;12.23;;;;;;;10.30;100.00;99859.75;5113054;28;20127;-83
2021/05/13 08:23:06;;;;;;;19.35;12.43;;;;;;;10.34;100.00;99865.69;5108578;28;20419;-83
2021/05/13 08:25:32;;;;;;;18.88;11.77;;;;;;;10.24;100.00;99854.69;5096114;28;20020;-84
2021/05/13 08:27:57;;;;;;;21.52;12.45;;;;;;;10.08;100.00;99853.44;5094715;28;20024;-84
2021/05/13 08:30:23;;;;;;;19.75;10.77;;;;;;;10.04;100.00;99859.59;5094744;28;20023;-84
2021/05/13 08:32:49;;;;;;;18.73;10.70;;;;;;;10.04;100.00;99857.00;5094991;28;20028;-84
2021/05/13 08:35:14;;;;;;;18.55;11.18;;;;;;;10.06;100.00;99852.63;5093761;28;20024;-84
2021/05/13 08:37:40;;;;;;;18.92;11.13;;;;;;;10.18;100.00;99849.69;5094197;28;20023;-84
2021/05/13 08:40:07;;;;;;;21.05;12.20;;;;;;;10.40;100.00;99851.72;5093893;28;20054;-84
2021/05/13 08:42:35;;;;;;;21.73;12.20;;;;;;;10.70;100.00;99856.00;5094765;28;20076;-84
2021/05/13 08:45:01;;;;;;;16.92;10.80;;;;;;;10.66;100.00;99853.56;5094391;28;20515;-84
2021/05/13 08:47:26;;;;;;;23.27;11.80;;;;;;;10.86;100.00;99846.00;5095072;28;20055;-83
2021/05/13 08:49:52;;;;;;;20.83;11.00;;;;;;;10.78;100.00;99846.25;5095113;28;20024;-84
2021/05/13 08:52:19;;;;;;;19.85;11.23;;;;;;;10.58;100.00;99839.03;5094960;28;20381;-85
2021/05/13 08:54:55;;;;;;;19.30;11.85;;;;;;;10.59;100.00;99838.19;5095414;28;20111;-84
2021/05/13 08:57:22;;;;;;;20.17;12.40;;;;;;;10.52;100.00;99844.41;5095183;28;20035;-84
2021/05/13 08:59:48;;;;;;;21.85;13.23;;;;;;;10.70;100.00;99837.84;5095621;28;20032;-84
2021/05/13 09:02:15;;;;;;;20.55;13.63;;;;;;;10.73;100.00;99842.94;5097709;28;20473;-84
2021/05/13 09:04:48;;;;;;;22.55;13.93;;;;;;;10.59;100.00;99838.19;5099664;28;20111;-84
2021/05/13 09:07:18;;;;;;;19.77;11.32;;;;;;;10.69;100.00;99833.56;5098596;28;20024;-84
2021/05/13 09:09:56;;;;;;;18.75;10.73;;;;;;;10.76;100.00;99837.66;5098188;28;20035;-85
2021/05/13 09:12:23;;;;;;;17.02;10.35;;;;;;;10.57;100.00;99836.53;5097496;28;20024;-86
2021/05/13 09:14:57;;;;;;;18.10;9.95;;;;;;;10.44;100.00;99832.59;5097897;28;20070;-86
2021/05/13 09:17:27;;;;;;;21.13;11.88;;;;;;;10.59;100.00;99835.59;5097812;28;20547;-86
2021/05/13 09:19:54;;;;;;;25.88;14.05;;;;;;;10.33;100.00;99825.97;5097350;28;20123;-86
2021/05/13 09:22:22;;;;;;;22.55;14.18;;;;;;;10.53;100.00;99842.66;5097402;28;20038;-86
2021/05/13 09:24:51;;;;;;;26.48;15.88;;;;;;;10.67;100.00;99843.13;5097640;28;20019;-86
2021/05/13 09:27:28;;;;;;;26.02;16.45;;;;;;;10.53;100.00;99840.94;5096851;28;20024;-86
2021/05/13 09:30:18;;;;;;;26.48;15.02;;;;;;;10.53;100.00;99840.06;5096965;28;20019;-86
2021/05/13 09:32:46;;;;;;;27.65;16.73;;;;;;;10.28;100.00;99838.22;5097181;28;20024;-85
2021/05/13 09:35:20;;;;;;;23.90;16.08;;;;;;;10.22;100.00;99833.19;5097202;28;20046;-86
2021/05/13 09:37:56;;;;;;;28.55;16.65;;;;;;;10.25;100.00;99843.47;5097239;28;20107;-85
2021/05/13 09:40:34;;;;;;;29.20;16.23;;;;;;;10.34;100.00;99843.25;5097074;28;20024;-85
2021/05/13 09:43:13;;;;;;;27.52;16.92;;;;;;;10.88;100.00;99846.81;5097948;28;20110;-85
2021/05/13 09:45:49;;;;;;;22.95;15.85;;;;;;;10.94;100.00;99843.19;5096824;28;20028;-85
2021/05/13 09:48:33;;;;;;;25.63;16.48;;;;;;;10.85;100.00;99840.88;5096997;28;20024;-85
2021/05/13 09:51:16;;;;;;;25.70;15.43;;;;;;;10.80;100.00;99838.41;5097372;28;20024;-85
2021/05/13 09:53:42;;;;;;;26.20;16.63;;;;;;;10.66;100.00;99830.22;5097489;28;20020;-85
2021/05/13 09:56:28;;;;;;;24.50;15.55;;;;;;;10.94;100.00;99838.84;5099781;28;20036;-85
2021/05/13 09:58:54;;;;;;;25.88;17.13;;;;;;;10.87;100.00;99832.16;5101926;28;20016;-85
2021/05/13 10:01:20;;;;;;;21.92;16.33;;;;;;;10.85;100.00;99835.69;5102530;28;20027;-85
2021/05/13 10:03:46;;;;;;;24.10;16.08;;;;;;;10.68;100.00;99836.19;5103209;28;20023;-85
2021/05/13 10:06:12;;;;;;;22.70;15.13;;;;;;;10.57;100.00;99839.94;5101172;28;20022;-85
2021/05/13 10:08:38;;;;;;;21.63;14.90;;;;;;;10.76;100.00;99837.66;5096075;28;20121;-85
2021/05/13 10:11:06;;;;;;;22.05;15.15;;;;;;;10.78;100.00;99829.84;5096716;28;20027;-85
2021/05/13 10:13:32;;;;;;;22.98;15.45;;;;;;;10.90;100.00;99831.19;5095588;28;20396;-85
2021/05/13 10:15:59;;;;;;;21.33;14.30;;;;;;;11.19;100.00;99825.91;5096401;28;20024;-85
2021/05/13 10:18:42;;;;;;;23.48;14.15;;;;;;;11.26;100.00;99832.59;5096489;28;20508;-85
2021/05/13 10:21:20;;;;;;;23.60;14.85;;;;;;;11.04;100.00;99832.44;5097907;28;20067;-85
2021/05/13 10:23:46;;;;;;;24.52;15.52;;;;;;;10.73;100.00;99832.56;5097248;28;20020;-85
2021/05/13 10:26:32;;;;;;;22.27;14.68;;;;;;;10.89;100.00;99837.28;5096445;28;20036;-85
2021/05/13 10:28:57;;;;;;;19.75;12.73;;;;;;;10.86;100.00;99842.56;5096066;28;20120;-85
2021/05/13 10:31:36;;;;;;;18.70;13.25;;;;;;;10.88;100.00;99835.59;5096099;28;20055;-85
2021/05/13 10:34:02;;;;;;;20.65;14.48;;;;;;;10.84;100.00;99834.84;5095830;28;20024;-85
2021/05/13 10:36:28;;;;;;;19.33;13.18;;;;;;;10.74;100.00;99833.41;5079229;28;20052;-85
2021/05/13 10:39:04;;;;;;;21.25;12.63;;;;;;;10.81;100.00;99834.94;5095626;28;20423;-85
2021/05/13 10:41:30;;;;;;;19.58;14.00;;;;;;;10.83;100.00;99831.38;5095891;28;20388;-85
2021/05/13 10:43:56;;;;;;;20.30;14.65;;;;;;;10.87;100.00;99829.56;5096412;28;20050;-85
2021/05/13 10:46:26;;;;;;;24.58;15.02;;;;;;;10.86;100.00;99833.03;5096518;28;20085;-85
2021/05/13 10:48:52;;;;;;;20.05;14.00;;;;;;;10.94;100.00;99831.06;5095917;28;20069;-85
2021/05/13 10:51:25;;;;;;;27.08;14.45;;;;;;;11.01;100.00;99829.09;5096270;28;20028;-85
2021/05/13 10:53:51;;;;;;;24.27;15.35;;;;;;;10.99;100.00;99828.28;5095691;28;20024;-84
2021/05/13 10:56:23;;;;;;;19.05;14.50;;;;;;;10.83;100.00;99827.94;5096923;28;20023;-85
2021/05/13 10:59:09;;;;;;;21.77;14.32;;;;;;;10.96;100.00;99829.25;5097989;28;20023;-85
2021/05/13 11:01:51;;;;;;;18.80;13.20;;;;;;;11.03;100.00;99835.94;5107406;28;20020;-85
2021/05/13 11:04:23;;;;;;;21.77;13.73;;;;;;;10.85;100.00;99833.94;5096217;28;20024;-85
2021/05/13 11:06:57;;;;;;;20.65;14.15;;;;;;;10.88;100.00;99839.03;5096532;28;20024;-85
2021/05/13 11:09:49;;;;;;;19.85;14.25;;;;;;;10.83;100.00;99835.72;5095466;28;20031;-85
2021/05/13 11:12:17;;;;;;;20.95;14.43;;;;;;;11.00;100.00;99836.03;5092803;28;20036;-85
2021/05/13 11:17:55;;;;;;;17.40;12.75;;;;;;;11.31;100.00;99831.63;5096836;28;20028;-85
2021/05/13 11:20:25;;;;;;;19.00;13.07;;;;;;;11.50;100.00;99825.75;5094683;28;20513;-85